createdAt,value
2023-03-02T00:01:08.569Z,-0.38
2023-03-02T00:03:43.262Z,-0.37
2023-03-02T00:06:15.457Z,-0.53
2023-03-02T00:08:48.415Z,-0.51
2023-03-02T00:11:19.983Z,-0.52
2023-03-02T00:13:51.980Z,-0.45
2023-03-02T00:16:26.327Z,-0.51
2023-03-02T00:18:58.918Z,-0.39
2023-03-02T00:21:31.973Z,-0.47
2023-03-02T00:24:04.095Z,-0.48
2023-03-02T00:26:37.418Z,-0.39
2023-03-02T00:29:09.457Z,-0.42
2023-03-02T00:31:43.851Z,-0.34
2023-03-02T00:34:17.136Z,-0.32
2023-03-02T00:36:49.771Z,-0.41
2023-03-02T00:39:21.992Z,-0.65
2023-03-02T00:41:53.959Z,-0.55
2023-03-02T00:44:26.158Z,-0.26
2023-03-02T00:47:00.724Z,-0.49
2023-03-02T00:49:33.194Z,-0.37
2023-03-02T00:52:05.133Z,-0.32
2023-03-02T00:55:15.931Z,-0.31
2023-03-02T00:58:12.453Z,-0.40
2023-03-02T01:00:53.433Z,-0.30
2023-03-02T01:03:28.353Z,-0.28
2023-03-02T01:06:01.061Z,-0.43
2023-03-02T01:08:33.173Z,-0.34
2023-03-02T01:11:05.516Z,-0.35
2023-03-02T01:13:37.338Z,-0.32
2023-03-02T01:16:10.431Z,-0.51
2023-03-02T01:18:45.102Z,-0.73
2023-03-02T01:21:19.334Z,-0.48
2023-03-02T01:23:51.986Z,-0.43
2023-03-02T01:26:24.214Z,-0.47
2023-03-02T01:28:56.609Z,-0.35
2023-03-02T01:31:30.168Z,-0.40
2023-03-02T01:34:04.821Z,-0.46
2023-03-02T01:36:37.364Z,-0.58
2023-03-02T01:39:09.278Z,-0.61
2023-03-02T01:41:41.671Z,-0.63
2023-03-02T01:44:42.523Z,-0.64
2023-03-02T01:47:19.419Z,-0.56
2023-03-02T01:49:59.838Z,-0.65
2023-03-02T01:52:35.092Z,-0.57
2023-03-02T01:55:12.601Z,-0.51
2023-03-02T01:57:49.864Z,-0.76
2023-03-02T02:00:25.854Z,-0.81
2023-03-02T02:03:09.699Z,-0.79
2023-03-02T02:05:47.641Z,-0.68
2023-03-02T02:08:20.119Z,-0.63
2023-03-02T02:10:52.338Z,-0.70
2023-03-02T02:13:24.742Z,-1.02
2023-03-02T02:15:56.960Z,-0.83
2023-03-02T02:18:29.915Z,-0.79
2023-03-02T02:21:05.298Z,-0.71
2023-03-02T02:23:43.524Z,-1.04
2023-03-02T02:26:35.528Z,-1.16
2023-03-02T02:29:14.837Z,-1.25
2023-03-02T02:31:54.569Z,-1.18
2023-03-02T02:34:35.835Z,-1.21
2023-03-02T02:37:22.967Z,-1.09
2023-03-02T02:40:58.042Z,-0.96
2023-03-02T02:44:46.337Z,-1.09
2023-03-02T02:47:24.214Z,-1.00
2023-03-02T02:49:58.323Z,-1.11
2023-03-02T02:52:32.194Z,-0.97
2023-03-02T02:55:04.345Z,-0.92
2023-03-02T02:57:36.122Z,-0.82
2023-03-02T03:00:12.490Z,-0.90
2023-03-02T03:02:48.554Z,-1.01
2023-03-02T03:05:20.951Z,-0.92
2023-03-02T03:07:53.452Z,-0.98
2023-03-02T03:10:35.257Z,-0.90
2023-03-02T03:13:06.854Z,-0.99
2023-03-02T03:15:39.484Z,-1.14
2023-03-02T03:18:13.768Z,-1.28
2023-03-02T03:20:49.831Z,-0.94
2023-03-02T03:23:22.124Z,-0.87
2023-03-02T03:25:53.714Z,-0.92
2023-03-02T03:28:24.885Z,-0.96
2023-03-02T03:30:56.662Z,-1.12
2023-03-02T03:33:33.464Z,-1.01
2023-03-02T03:36:05.109Z,-1.02
2023-03-02T03:38:36.786Z,-1.32
2023-03-02T03:41:08.982Z,-1.33
2023-03-02T03:43:41.814Z,-1.44
2023-03-02T03:46:14.149Z,-1.29
2023-03-02T03:48:48.068Z,-1.43
2023-03-02T03:51:22.672Z,-1.33
2023-03-02T03:54:00.473Z,-1.40
2023-03-02T03:56:34.212Z,-1.36
2023-03-02T03:59:10.820Z,-1.16
2023-03-02T04:01:46.765Z,-1.18
2023-03-02T04:04:23.914Z,-1.29
2023-03-02T04:06:57.540Z,-1.21
2023-03-02T04:09:32.298Z,-1.33
2023-03-02T04:12:03.938Z,-1.27
2023-03-02T04:14:35.519Z,-1.19
2023-03-02T04:17:08.030Z,-1.14
2023-03-02T04:19:45.912Z,-1.18
2023-03-02T04:22:20.285Z,-1.14
2023-03-02T04:24:52.488Z,-1.05
2023-03-02T04:27:25.445Z,-1.10
2023-03-02T04:29:57.368Z,-1.10
2023-03-02T04:32:29.297Z,-1.34
2023-03-02T04:35:02.832Z,-1.39
2023-03-02T04:37:34.250Z,-1.38
2023-03-02T04:40:09.163Z,-1.36
2023-03-02T04:42:40.804Z,-1.28
2023-03-02T04:45:15.721Z,-1.32
2023-03-02T04:47:47.184Z,-1.44
2023-03-02T04:50:20.914Z,-1.30
2023-03-02T04:52:53.959Z,-1.33
2023-03-02T04:55:28.876Z,-1.40
2023-03-02T04:58:00.875Z,-1.50
2023-03-02T05:00:35.519Z,-1.31
2023-03-02T05:03:08.020Z,-1.31
2023-03-02T05:05:42.575Z,-1.33
2023-03-02T05:08:15.116Z,-1.27
2023-03-02T05:10:46.676Z,-1.32
2023-03-02T05:13:18.755Z,-1.27
2023-03-02T05:15:51.930Z,-1.50
2023-03-02T05:18:24.415Z,-1.29
2023-03-02T05:20:58.848Z,-1.39
2023-03-02T05:23:31.854Z,-1.34
2023-03-02T05:26:03.356Z,-1.53
2023-03-02T05:28:35.438Z,-1.47
2023-03-02T05:31:07.452Z,-1.31
2023-03-02T05:33:38.881Z,-1.44
2023-03-02T05:36:12.550Z,-1.38
2023-03-02T05:38:44.309Z,-1.31
2023-03-02T05:41:15.253Z,-1.38
2023-03-02T05:43:46.685Z,-1.32
2023-03-02T05:46:18.169Z,-1.28
2023-03-02T05:48:50.053Z,-1.35
2023-03-02T05:51:23.639Z,-1.32
2023-03-02T05:53:54.996Z,-1.19
2023-03-02T05:56:25.923Z,-1.39
2023-03-02T05:58:57.271Z,-1.37
2023-03-02T06:01:28.120Z,-1.21
2023-03-02T06:03:59.919Z,-1.31
2023-03-02T06:06:34.196Z,-1.25
2023-03-02T06:09:05.917Z,-1.22
2023-03-02T06:11:36.793Z,-1.35
2023-03-02T06:14:08.356Z,-1.23
2023-03-02T06:16:39.295Z,-1.31
2023-03-02T06:19:10.919Z,-1.29
2023-03-02T06:21:44.413Z,-1.30
2023-03-02T06:24:15.886Z,-1.39
2023-03-02T06:26:47.144Z,-1.57
2023-03-02T06:29:18.423Z,-1.52
2023-03-02T06:31:49.766Z,-1.56
2023-03-02T06:34:21.395Z,-1.62
2023-03-02T06:36:55.315Z,-1.64
2023-03-02T06:39:27.063Z,-1.69
2023-03-02T06:41:59.492Z,-1.87
2023-03-02T06:44:31.102Z,-1.78
2023-03-02T06:47:02.473Z,-1.65
2023-03-02T06:49:34.155Z,-1.60
2023-03-02T06:52:08.231Z,-1.72
2023-03-02T06:54:40.117Z,-1.48
2023-03-02T06:57:11.581Z,-1.65
2023-03-02T06:59:43.119Z,-1.84
2023-03-02T07:02:14.952Z,-1.66
2023-03-02T07:04:46.618Z,-1.88
2023-03-02T07:07:20.232Z,-1.88
2023-03-02T07:09:51.580Z,-1.85
2023-03-02T07:12:22.447Z,-1.73
2023-03-02T07:14:53.870Z,-1.79
2023-03-02T07:17:24.649Z,-1.63
2023-03-02T07:19:55.903Z,-1.67
2023-03-02T07:22:29.576Z,-1.64
2023-03-02T07:25:00.912Z,-1.69
2023-03-02T07:27:31.937Z,-1.95
2023-03-02T07:30:03.429Z,-1.63
2023-03-02T07:32:34.641Z,-1.96
2023-03-02T07:35:06.197Z,-1.46
2023-03-02T07:37:39.789Z,-1.27
2023-03-02T07:40:13.571Z,-1.25
2023-03-02T07:42:44.459Z,-1.44
2023-03-02T07:45:16.952Z,-1.43
2023-03-02T07:47:47.977Z,-1.17
2023-03-02T07:50:19.955Z,-1.48
2023-03-02T07:52:53.597Z,-1.51
2023-03-02T07:55:24.916Z,-1.19
2023-03-02T07:57:55.962Z,-1.08
2023-03-02T08:00:27.887Z,-1.03
2023-03-02T08:02:58.938Z,-1.44
2023-03-02T08:05:30.528Z,-1.18
2023-03-02T08:08:04.179Z,-0.99
2023-03-02T08:10:37.216Z,-0.77
2023-03-02T08:13:10.320Z,-0.78
2023-03-02T08:15:41.731Z,-0.98
2023-03-02T08:18:15.091Z,-0.65
2023-03-02T08:20:46.332Z,-0.45
2023-03-02T08:23:19.869Z,-0.58
2023-03-02T08:25:51.376Z,-0.30
2023-03-02T08:28:23.061Z,-0.37
2023-03-02T08:31:00.756Z,-0.68
2023-03-02T08:33:33.186Z,-0.51
2023-03-02T08:36:07.718Z,-0.17
2023-03-02T08:38:41.794Z,0.02
2023-03-02T08:41:15.524Z,0.11
2023-03-02T08:43:46.869Z,0.26
2023-03-02T08:46:20.154Z,-0.23
2023-03-02T08:48:52.764Z,-0.19
2023-03-02T08:51:27.375Z,-0.01
2023-03-02T08:54:00.878Z,0.48
2023-03-02T08:56:34.206Z,0.57
2023-03-02T08:59:08.053Z,0.56
2023-03-02T09:01:40.780Z,0.57
2023-03-02T09:04:13.586Z,0.78
2023-03-02T09:06:47.701Z,0.45
2023-03-02T09:09:21.468Z,0.35
2023-03-02T09:11:52.997Z,0.56
2023-03-02T09:14:27.403Z,0.63
2023-03-02T09:16:59.034Z,0.67
2023-03-02T09:19:30.333Z,0.76
2023-03-02T09:22:01.785Z,1.04
2023-03-02T09:24:35.974Z,1.54
2023-03-02T09:27:08.250Z,2.02
2023-03-02T09:29:39.526Z,2.11
2023-03-02T09:32:12.142Z,2.20
2023-03-02T09:34:43.544Z,2.99
2023-03-02T09:37:16.369Z,3.65
2023-03-02T09:39:50.242Z,3.09
2023-03-02T09:42:45.730Z,4.78
2023-03-02T09:45:28.444Z,4.32
2023-03-02T09:48:14.112Z,4.92
2023-03-02T13:37:46.992Z,3.43
2023-03-02T13:40:40.790Z,3.55
2023-03-02T13:43:36.900Z,3.50
2023-03-02T13:46:27.907Z,3.40
2023-03-02T21:31:59.654Z,-1.28
2023-03-02T21:34:32.917Z,-1.30
2023-03-02T21:37:04.785Z,-1.27
2023-03-02T21:39:37.542Z,-1.22
2023-03-02T21:42:09.732Z,-1.33
2023-03-02T21:44:42.057Z,-1.23
2023-03-02T21:47:16.798Z,-1.37
2023-03-02T21:49:48.806Z,-1.27
2023-03-02T21:52:20.526Z,-1.24
2023-03-02T21:54:52.863Z,-1.44
2023-03-02T21:57:24.848Z,-1.39
2023-03-02T21:59:57.788Z,-1.51
2023-03-02T22:02:32.368Z,-1.38
2023-03-02T22:05:04.856Z,-1.30
2023-03-02T22:07:36.884Z,-1.28
2023-03-02T22:10:11.219Z,-1.51
2023-03-02T22:12:45.132Z,-1.67
2023-03-02T22:15:21.550Z,-1.60
2023-03-02T22:17:57.090Z,-1.48
2023-03-02T22:20:29.942Z,-1.47
2023-03-02T22:23:02.794Z,-1.57
2023-03-02T22:25:35.106Z,-1.39
2023-03-02T22:28:16.562Z,-1.45
2023-03-02T22:30:48.811Z,-1.15
2023-03-02T22:33:26.123Z,-1.10
2023-03-02T22:36:05.164Z,-1.21
2023-03-02T22:38:37.090Z,-1.34
2023-03-02T22:41:13.533Z,-1.46
2023-03-02T22:43:46.107Z,-1.25
2023-03-02T22:46:22.065Z,-1.21
2023-03-02T22:48:57.593Z,-1.27
2023-03-02T22:51:33.209Z,-1.36
2023-03-02T22:54:05.660Z,-1.45
2023-03-02T22:59:51.725Z,-1.33
2023-03-02T23:02:26.365Z,-1.34
2023-03-02T23:05:03.533Z,-1.23
2023-03-02T23:07:35.462Z,-1.07
2023-03-02T23:10:07.630Z,-1.34
2023-03-02T23:12:39.579Z,-1.25
2023-03-02T23:15:20.269Z,-1.29
2023-03-02T23:17:52.812Z,-1.59
2023-03-02T23:20:30.037Z,-1.57
2023-03-02T23:23:01.737Z,-1.44
2023-03-02T23:25:45.370Z,-1.36
2023-03-02T23:28:18.104Z,-1.45
2023-03-02T23:30:50.517Z,-1.22
2023-03-02T23:33:22.833Z,-1.29
2023-03-02T23:35:57.887Z,-0.94
2023-03-02T23:38:30.627Z,-1.46
2023-03-02T23:41:02.703Z,-1.32
2023-03-02T23:43:49.346Z,-1.04
2023-03-02T23:46:24.645Z,-1.30
2023-03-02T23:48:56.536Z,-1.39
2023-03-02T23:51:31.604Z,-1.36
2023-03-02T23:54:04.758Z,-1.37
2023-03-02T23:56:37.134Z,-1.35
2023-03-02T23:59:09.375Z,-1.57
